createdAt,value
2022-10-28T00:04:50.654Z,10.036789297658864
2022-10-28T00:11:46.575Z,9.872909698996656
2022-10-28T00:23:23.010Z,10.127090301003344
2022-10-28T00:31:27.893Z,10.735785953177258
2022-10-28T00:41:23.495Z,10.050167224080267
2022-10-28T01:02:10.692Z,10.123745819397993
2022-10-28T01:11:05.686Z,10.307692307692308
2022-10-28T01:18:53.648Z,9.377926421404682
2022-10-28T01:26:55.409Z,9.267558528428093
2022-10-28T01:34:26.908Z,9.431438127090301
2022-10-28T01:41:47.114Z,10.658862876254181
2022-10-28T01:49:47.130Z,9.528428093645484
2022-10-28T01:57:34.240Z,9.959866220735785
2022-10-28T02:05:09.713Z,9.695652173913043
2022-10-28T02:12:47.787Z,10.183946488294314
2022-10-28T02:20:24.214Z,9.85953177257525
2022-10-28T02:28:12.742Z,10.632107023411372
2022-10-28T02:35:27.306Z,10.180602006688963
2022-10-28T02:42:50.655Z,10.070234113712374
2022-10-28T02:50:15.666Z,9.652173913043478
2022-10-28T02:57:47.258Z,9.97324414715719
2022-10-28T03:09:47.059Z,10.016722408026755
2022-10-28T03:19:48.386Z,9.093645484949834
2022-10-28T03:28:07.079Z,9.826086956521738
2022-10-28T03:35:45.864Z,10.54180602006689
2022-10-28T03:43:43.332Z,10.183946488294314
2022-10-28T03:51:34.033Z,10.652173913043478
2022-10-28T03:59:09.328Z,11.471571906354516
2022-10-28T04:06:31.516Z,11.200668896321071
2022-10-28T04:27:56.980Z,14.816053511705686
2022-10-28T04:35:33.253Z,12.578595317725753
2022-10-28T04:54:06.978Z,12.812709030100335
2022-10-28T05:01:55.283Z,16.54180602006689
2022-10-28T05:09:18.079Z,13.896321070234114
2022-10-28T05:16:37.223Z,12.123745819397993
2022-10-28T05:29:43.550Z,11.468227424749164
2022-10-28T05:36:20.500Z,13.073578595317725
2022-10-28T05:42:57.104Z,10.966555183946488
2022-10-28T05:49:33.504Z,10.926421404682275
2022-10-28T05:56:10.561Z,11.220735785953178
2022-10-28T06:02:41.408Z,11.849498327759198
2022-10-28T06:09:12.281Z,14.150501672240802
2022-10-28T06:18:56.470Z,13.956521739130435
2022-10-28T06:26:59.427Z,12.568561872909699
2022-10-28T06:35:39.881Z,12.177257525083611
2022-10-28T06:42:13.740Z,12.501672240802675
2022-10-28T06:54:08.121Z,12.618729096989966
2022-10-28T07:06:29.517Z,12.605351170568563
2022-10-28T07:14:16.833Z,12.444816053511706
2022-10-28T07:21:38.502Z,13.010033444816054
2022-10-28T07:31:16.175Z,12.899665551839465
2022-10-28T07:37:48.674Z,12.364548494983278
2022-10-28T07:44:29.412Z,11.852842809364548
2022-10-28T07:51:03.862Z,13.163879598662207
2022-10-28T07:57:39.172Z,13.31438127090301
2022-10-28T08:04:13.163Z,12.946488294314381
2022-10-28T08:16:48.853Z,12.953177257525084
2022-10-28T08:23:32.520Z,12.053511705685619
2022-10-28T08:31:39.618Z,11.672240802675585
2022-10-28T08:38:13.499Z,10.959866220735785
2022-10-28T08:44:47.853Z,10.668896321070234
2022-10-28T08:55:38.094Z,11.51505016722408
2022-10-28T09:02:10.164Z,10.020066889632107
2022-10-28T09:09:57.853Z,11.391304347826088
2022-10-28T09:16:29.353Z,13.906354515050166
2022-10-28T09:26:43.565Z,14.438127090301004
2022-10-28T09:33:15.517Z,11.73913043478261
2022-10-28T09:39:47.594Z,8.852842809364548
2022-10-28T09:55:45.377Z,6.806020066889632
2022-10-28T10:04:39.127Z,6.494983277591973
2022-10-28T10:11:11.828Z,6.635451505016722
2022-10-28T10:17:43.252Z,7.013377926421405
2022-10-28T10:35:12.163Z,6.956521739130435
2022-10-28T10:41:43.824Z,6.79933110367893
2022-10-28T10:48:16.921Z,6.869565217391305
2022-10-28T10:54:55.528Z,7.170568561872909
2022-10-28T11:01:32.226Z,6.351170568561873
2022-10-28T11:21:16.636Z,7.394648829431438
2022-10-28T11:28:04.938Z,6.297658862876254
2022-10-28T11:34:39.232Z,6.518394648829432
2022-10-28T11:41:15.667Z,6.561872909698996
2022-10-28T11:47:46.783Z,6.595317725752508
2022-10-28T11:54:19.379Z,6.461538461538462
2022-10-28T12:06:34.108Z,6.137123745819398
2022-10-28T12:13:04.828Z,6.672240802675585
2022-10-28T12:19:34.382Z,6.765886287625418
2022-10-28T12:26:16.586Z,6.8193979933110365
2022-10-28T12:32:51.779Z,6.230769230769231
2022-10-28T12:39:25.761Z,6.297658862876254
2022-10-28T12:45:58.180Z,5.953177257525083
2022-10-28T12:52:30.193Z,6.491638795986622
2022-10-28T12:59:01.486Z,7.698996655518394
2022-10-28T13:05:35.601Z,7.672240802675585
2022-10-28T13:15:45.952Z,6.809364548494983
2022-10-28T13:22:43.328Z,7.183946488294314
2022-10-28T13:29:31.461Z,7.615384615384615
2022-10-28T13:40:28.365Z,7.7324414715719065
2022-10-28T13:47:26.379Z,7.026755852842809
2022-10-28T13:54:16.229Z,6.986622073578595
2022-10-28T14:03:18.113Z,10.668896321070234
2022-10-28T14:15:16.898Z,14.85953177257525
2022-10-28T14:21:58.962Z,8.200668896321071
2022-10-28T14:28:52.613Z,7.377926421404682
2022-10-28T14:36:00.688Z,8.120401337792643
2022-10-28T14:43:27.855Z,7.394648829431438
2022-10-28T14:51:18.398Z,7.2675585284280935
2022-10-28T14:58:56.502Z,8.588628762541806
2022-10-28T15:06:37.159Z,8.79598662207358
2022-10-28T15:14:11.539Z,8.354515050167224
2022-10-28T15:30:03.207Z,42.525083612040135
2022-10-28T15:36:39.251Z,31.52173913043478
2022-10-28T15:51:30.217Z,22.494983277591974
2022-10-28T15:58:08.563Z,18.809364548494983
2022-10-28T16:04:44.271Z,15.073578595317725
2022-10-28T16:13:41.529Z,12.702341137123746
2022-10-28T16:24:31.203Z,11.97324414715719
2022-10-28T16:31:04.925Z,12.277591973244148
2022-10-28T16:37:44.208Z,11.183946488294314
2022-10-28T16:44:22.938Z,10.996655518394649
2022-10-28T16:50:58.818Z,10.578595317725753
2022-10-28T17:01:02.691Z,11.31772575250836
2022-10-28T17:07:38.605Z,10.68561872909699
2022-10-28T17:14:15.623Z,10.832775919732441
2022-10-28T17:24:13.076Z,10.963210702341136
2022-10-28T17:30:52.912Z,11.147157190635452
2022-10-28T17:43:18.639Z,10.608695652173912
2022-10-28T17:52:02.629Z,11.220735785953178
2022-10-28T18:04:35.782Z,11.615384615384615
2022-10-28T18:11:13.306Z,12.464882943143813
2022-10-28T18:24:57.262Z,14.471571906354516
2022-10-28T18:31:31.869Z,15.11371237458194
2022-10-28T18:39:09.382Z,11.334448160535118
2022-10-28T18:45:46.421Z,11.929765886287626
2022-10-28T18:52:50.668Z,12.892976588628763
2022-10-28T19:02:23.507Z,10.020066889632107
2022-10-28T19:10:50.817Z,10.926421404682275
2022-10-28T19:17:27.863Z,10.498327759197325
2022-10-28T19:29:56.105Z,11.481605351170568
2022-10-28T19:37:33.860Z,10.635451505016722
2022-10-28T19:45:15.888Z,10.237458193979933
2022-10-28T19:51:51.242Z,10.130434782608695
2022-10-28T20:02:40.847Z,9.882943143812708
2022-10-28T20:15:05.739Z,8.709030100334449
2022-10-28T20:27:57.012Z,9.120401337792643
2022-10-28T20:34:32.325Z,8.983277591973245
2022-10-28T20:41:08.187Z,9.996655518394649
2022-10-28T20:55:07.522Z,10.404682274247492
2022-10-28T21:01:40.772Z,10.341137123745819
2022-10-28T21:08:16.995Z,10.658862876254181
2022-10-28T21:14:51.648Z,9.020066889632107
2022-10-28T21:21:27.193Z,9.892976588628763
2022-10-28T21:34:07.444Z,10.334448160535118
2022-10-28T21:52:14.128Z,10.548494983277592
2022-10-28T22:00:47.326Z,10.464882943143813
2022-10-28T22:07:22.120Z,10.107023411371237
2022-10-28T22:18:51.780Z,10.448160535117056
2022-10-28T22:25:33.809Z,10.722408026755852
2022-10-28T22:32:08.784Z,9.454849498327759
2022-10-28T22:40:16.444Z,10.411371237458194
2022-10-28T22:46:52.955Z,16.193979933110366
2022-10-28T22:53:30.598Z,15.779264214046822
2022-10-28T23:00:09.837Z,14.123745819397993
2022-10-28T23:13:57.625Z,17.36454849498328
2022-10-28T23:23:32.795Z,17.17725752508361
2022-10-28T23:30:11.424Z,15.123745819397993
2022-10-28T23:36:48.928Z,13.953177257525084
2022-10-28T23:43:27.742Z,12.85953177257525
2022-10-28T23:50:05.116Z,11.799331103678929
2022-10-28T23:56:40.905Z,11.612040133779264
